Weather at Wiley Post Airport

Public forecast

Using degrees Fahrenheit for public forecast. Weather courtesy of forecast.io.

Current aviation weather report (METAR) for Wiley Post Airport

Retrieved 2021/10/19 21:53 UTC (1 hour ago):

KPWA 192153Z 17018G29KT 10SM CLR 26/13 A2988 RMK AO2 PK WND 14032/2121 SLP106 T02610133

Closest aviation forecast (TAF) to Wiley Post Airport

Closest forecast is Will Rogers World Airport, 8.8 nm (16.2 km) SSE. Retrieved 2021/10/19 18:22 UTC (5 hours ago):

TAF KOKC 191720Z 1918/2018 18018G27KT P6SM FEW250 FM200600 18015G20KT P6SM SKC WS020/20045KT FM201100 20012G17KT P6SM SCT025 FM201400 32012G17KT P6SM FEW200